Allred, Tennessee
Current Conditions -  °F | °C
As of 5:53 AM on Sunday 25 Jan 2015 (Local Time) from KCSV Reporting Station
Clear Clear  
Wind Chill: -3°   Ceiling: Unl
Heat Index:   Visibility: 10mi
Dew Point: -3°   Wind: 5mph
Humidity: 82%   Direction: 170°S
Pressure: 29.83"   Gusts: NA
Location:  36.33°N, 85.19°W
Report Text: KCSV 251153Z AUTO 17004KT 10SM CLR 00/M03 A2983 RMK AO2 SLP111 T00001028 10011 21006 56014
Loading
Personal Weather Stations






























Interactive Weather Map New forecast layout! Learn more

10-Day Weather Forecast

Advertisements
Track Severe Weather on mobile